Time;durP1;ratioP1;P1;durP2;ratioP2;P2;SDS_P1;SDS_P2;PMS_P1;PMS_P2;Temp;Humidity;BMP_temperature;BMP_pressure;BME280_temperature;BME280_humidity;BME280_pressure;Samples;Min_cycle;Max_cycle;Signal;HPM_P1;HPM_P2
2023/11/03 00:00:09;;;;;;;7.73;1.37;;;;;;;;;;5015972;28;20018;-80
2023/11/03 00:02:37;;;;;;;3.77;1.00;;;;;;;;;;5012214;28;20053;-81
2023/11/03 00:05:11;;;;;;;6.73;1.20;;;;;;;;;;5012305;28;20094;-81
2023/11/03 00:07:37;;;;;;;2.53;0.70;;;;;;;;;;5012544;28;20023;-81
2023/11/03 00:10:09;;;;;;;4.67;1.00;;;;;;;;;;5022166;28;20064;-81
2023/11/03 00:12:36;;;;;;;5.20;1.00;;;;;;;;;;5015710;28;20038;-80
2023/11/03 00:15:03;;;;;;;10.13;1.20;;;;;;;;;;5008163;28;20110;-81
2023/11/03 00:17:29;;;;;;;3.90;0.93;;;;;;;;;;5016240;28;20034;-81
2023/11/03 00:19:55;;;;;;;5.97;1.03;;;;;;;;;;5005710;28;20033;-80
2023/11/03 00:22:23;;;;;;;6.27;1.30;;;;;;;;;;5017067;28;20034;-80
2023/11/03 00:24:49;;;;;;;4.93;1.03;;;;;;;;;;5008226;28;20042;-79
2023/11/03 00:27:15;;;;;;;5.23;1.10;;;;;;;;;;5007929;28;20030;-80
2023/11/03 00:29:54;;;;;;;7.97;1.10;;;;;;;;;;5001346;28;20026;-80
2023/11/03 00:32:21;;;;;;;6.17;1.23;;;;;;;;;;5008098;28;20098;-79
2023/11/03 00:34:47;;;;;;;3.77;0.90;;;;;;;;;;5009750;28;20038;-81
2023/11/03 00:37:13;;;;;;;5.03;1.13;;;;;;;;;;5009309;28;20065;-79
2023/11/03 00:39:40;;;;;;;4.17;0.63;;;;;;;;;;5008222;28;20050;-80
2023/11/03 00:42:07;;;;;;;4.60;1.30;;;;;;;;;;5000383;28;20129;-80
2023/11/03 00:44:34;;;;;;;4.30;0.80;;;;;;;;;;5010997;28;20029;-80
2023/11/03 00:47:00;;;;;;;5.33;0.50;;;;;;;;;;5000705;28;20447;-79
2023/11/03 00:49:26;;;;;;;4.03;1.17;;;;;;;;;;5002270;28;20137;-81
2023/11/03 00:51:52;;;;;;;4.97;0.80;;;;;;;;;;5006848;28;20038;-81
2023/11/03 00:54:20;;;;;;;6.23;0.97;;;;;;;;;;5004238;28;20640;-78
2023/11/03 00:56:46;;;;;;;2.83;0.60;;;;;;;;;;5017564;28;20073;-80
2023/11/03 00:59:12;;;;;;;2.43;0.70;;;;;;;;;;4998975;28;20374;-80
2023/11/03 01:01:38;;;;;;;8.13;1.13;;;;;;;;;;5004584;28;20455;-81
2023/11/03 01:04:05;;;;;;;1.23;0.43;;;;;;;;;;5020722;28;20034;-79
2023/11/03 01:06:31;;;;;;;5.13;0.70;;;;;;;;;;5004089;28;20046;-80
2023/11/03 01:08:57;;;;;;;2.73;0.90;;;;;;;;;;5002266;28;20054;-79
2023/11/03 01:11:23;;;;;;;3.33;0.83;;;;;;;;;;5001769;28;20026;-79
2023/11/03 01:13:50;;;;;;;6.67;1.00;;;;;;;;;;4999518;28;20114;-80
2023/11/03 01:16:18;;;;;;;3.83;0.47;;;;;;;;;;5000871;28;20049;-80
2023/11/03 01:18:45;;;;;;;4.93;0.50;;;;;;;;;;4998788;28;20140;-81
2023/11/03 01:21:15;;;;;;;2.73;0.60;;;;;;;;;;5004316;28;20070;-80
2023/11/03 01:23:43;;;;;;;4.27;1.00;;;;;;;;;;4998629;28;20031;-80
2023/11/03 01:26:10;;;;;;;2.13;0.60;;;;;;;;;;5002665;28;20073;-79
2023/11/03 01:28:36;;;;;;;5.33;0.63;;;;;;;;;;5002844;28;20037;-80
2023/11/03 01:31:10;;;;;;;6.63;0.90;;;;;;;;;;4998661;28;20372;-79
2023/11/03 01:33:37;;;;;;;4.00;0.90;;;;;;;;;;5000670;28;20133;-80
2023/11/03 01:36:04;;;;;;;9.20;0.63;;;;;;;;;;5001457;28;20244;-80
2023/11/03 01:38:34;;;;;;;4.47;1.13;;;;;;;;;;5002397;28;20076;-79
2023/11/03 01:41:01;;;;;;;3.17;0.70;;;;;;;;;;5001629;28;20033;-79
2023/11/03 01:43:28;;;;;;;1.63;0.50;;;;;;;;;;5002432;28;21674;-79
2023/11/03 01:45:56;;;;;;;1.70;0.53;;;;;;;;;;5002118;28;20026;-79
2023/11/03 01:48:22;;;;;;;1.43;0.43;;;;;;;;;;5000540;28;20038;-80
2023/11/03 01:50:48;;;;;;;2.27;0.40;;;;;;;;;;5001466;28;20026;-80
2023/11/03 01:53:15;;;;;;;2.27;0.53;;;;;;;;;;5002181;28;20086;-80
2023/11/03 01:55:41;;;;;;;1.97;0.20;;;;;;;;;;4999980;28;20094;-80
2023/11/03 01:58:07;;;;;;;4.13;0.60;;;;;;;;;;5003019;28;20038;-81
2023/11/03 02:00:34;;;;;;;2.77;0.67;;;;;;;;;;5002486;28;20034;-79
2023/11/03 02:03:00;;;;;;;3.60;0.47;;;;;;;;;;5018103;28;20065;-80
2023/11/03 02:05:26;;;;;;;2.40;0.60;;;;;;;;;;4974779;28;20075;-80
2023/11/03 02:07:52;;;;;;;3.00;0.60;;;;;;;;;;4961847;28;20047;-79
2023/11/03 02:10:18;;;;;;;2.00;0.20;;;;;;;;;;4974540;28;20121;-79
2023/11/03 02:21:59;;;;;;;4.88;0.93;;;;;;;;;;4979006;28;20037;-80
2023/11/03 02:24:26;;;;;;;1.45;0.45;;;;;;;;;;4964615;28;20037;-80
2023/11/03 02:26:52;;;;;;;2.00;0.73;;;;;;;;;;4978679;28;20046;-79
2023/11/03 02:29:19;;;;;;;3.07;0.40;;;;;;;;;;4978622;28;20071;-79
2023/11/03 02:31:45;;;;;;;3.10;0.57;;;;;;;;;;4964400;28;20050;-79
2023/11/03 02:34:11;;;;;;;4.73;1.03;;;;;;;;;;4964155;28;20094;-80
2023/11/03 02:36:37;;;;;;;2.07;0.90;;;;;;;;;;4999971;28;20034;-79
2023/11/03 02:39:04;;;;;;;2.50;0.60;;;;;;;;;;5001293;28;20034;-78
2023/11/03 02:41:31;;;;;;;4.20;0.60;;;;;;;;;;5018240;28;20038;-79
2023/11/03 02:43:57;;;;;;;5.40;1.20;;;;;;;;;;5011644;28;20964;-79
2023/11/03 02:46:23;;;;;;;4.83;0.53;;;;;;;;;;5004411;28;20080;-79
2023/11/03 02:48:50;;;;;;;5.30;0.60;;;;;;;;;;4996859;28;20046;-80
2023/11/03 02:51:16;;;;;;;2.63;0.53;;;;;;;;;;5003537;28;20038;-80
2023/11/03 02:53:42;;;;;;;1.43;0.50;;;;;;;;;;5002707;28;20141;-79
2023/11/03 02:56:08;;;;;;;3.67;0.80;;;;;;;;;;5004116;28;20060;-79
2023/11/03 02:58:37;;;;;;;3.97;0.53;;;;;;;;;;4994450;28;20014;-79
2023/11/03 03:01:03;;;;;;;5.27;0.50;;;;;;;;;;4992746;28;20037;-79
2023/11/03 03:03:29;;;;;;;6.27;1.70;;;;;;;;;;4996512;28;20034;-79
2023/11/03 03:05:55;;;;;;;2.60;0.97;;;;;;;;;;5002528;28;20030;-79
2023/11/03 03:08:21;;;;;;;1.90;0.50;;;;;;;;;;5000524;28;20046;-79
2023/11/03 03:10:47;;;;;;;5.43;0.80;;;;;;;;;;4996387;28;20045;-80
2023/11/03 03:13:13;;;;;;;3.60;0.60;;;;;;;;;;4995780;28;20030;-79
2023/11/03 03:15:39;;;;;;;2.93;0.50;;;;;;;;;;5005398;28;20031;-79
2023/11/03 03:18:05;;;;;;;4.80;0.77;;;;;;;;;;5002948;28;20034;-79
2023/11/03 03:20:34;;;;;;;1.43;0.50;;;;;;;;;;5005721;28;20045;-81
2023/11/03 03:23:00;;;;;;;4.77;0.53;;;;;;;;;;5005500;28;20035;-80
2023/11/03 03:25:26;;;;;;;6.27;1.10;;;;;;;;;;5003224;28;20354;-79
2023/11/03 03:27:54;;;;;;;1.57;0.40;;;;;;;;;;5005857;28;20037;-80
2023/11/03 03:30:20;;;;;;;3.37;0.70;;;;;;;;;;5004946;28;20030;-80
2023/11/03 03:32:46;;;;;;;3.73;0.60;;;;;;;;;;5006005;28;20026;-79
2023/11/03 03:35:12;;;;;;;3.03;0.60;;;;;;;;;;5004712;28;20029;-79
2023/11/03 03:37:40;;;;;;;3.37;0.50;;;;;;;;;;5004728;28;20435;-80
2023/11/03 03:40:07;;;;;;;3.20;0.80;;;;;;;;;;5003436;28;20430;-79
2023/11/03 03:42:34;;;;;;;3.53;0.63;;;;;;;;;;4997881;28;20434;-79
2023/11/03 03:45:00;;;;;;;3.77;0.80;;;;;;;;;;5019744;28;20037;-80
2023/11/03 03:47:26;;;;;;;4.93;0.67;;;;;;;;;;5002887;28;20033;-79
2023/11/03 03:49:52;;;;;;;4.53;0.87;;;;;;;;;;4995824;28;20030;-80
2023/11/03 03:52:18;;;;;;;5.27;1.17;;;;;;;;;;5003448;28;20057;-79
2023/11/03 03:54:44;;;;;;;3.67;1.00;;;;;;;;;;5003740;28;20108;-79
2023/11/03 03:57:10;;;;;;;7.40;1.10;;;;;;;;;;5009479;28;20034;-79
2023/11/03 03:59:36;;;;;;;5.73;1.23;;;;;;;;;;5024442;28;22079;-80
2023/11/03 04:02:03;;;;;;;4.83;1.10;;;;;;;;;;5023828;28;20034;-80
2023/11/03 04:04:44;;;;;;;3.67;0.77;;;;;;;;;;5007756;28;20045;-78
2023/11/03 04:07:12;;;;;;;2.90;0.83;;;;;;;;;;4999596;28;20030;-79
2023/11/03 04:09:39;;;;;;;3.30;0.60;;;;;;;;;;5008327;28;20117;-79
2023/11/03 04:12:05;;;;;;;6.37;0.87;;;;;;;;;;5007998;28;20090;-80
2023/11/03 04:14:31;;;;;;;3.50;0.43;;;;;;;;;;5007150;28;20041;-79
2023/11/03 04:16:57;;;;;;;5.67;1.00;;;;;;;;;;5004927;28;20022;-80
2023/11/03 04:19:23;;;;;;;6.17;1.10;;;;;;;;;;5006436;28;20080;-79
2023/11/03 04:21:49;;;;;;;2.03;0.73;;;;;;;;;;5006222;28;20030;-79
2023/11/03 04:24:15;;;;;;;5.47;1.33;;;;;;;;;;5007542;28;20045;-80
2023/11/03 04:26:41;;;;;;;3.10;0.70;;;;;;;;;;5006514;28;20029;-80
2023/11/03 04:29:07;;;;;;;5.57;1.00;;;;;;;;;;5006623;28;20034;-79
2023/11/03 04:31:34;;;;;;;5.27;1.27;;;;;;;;;;5007953;28;20049;-79
2023/11/03 04:34:00;;;;;;;4.03;0.93;;;;;;;;;;5006078;28;20442;-80
2023/11/03 04:36:26;;;;;;;5.13;0.73;;;;;;;;;;5005839;28;20057;-80
2023/11/03 04:38:52;;;;;;;8.47;1.20;;;;;;;;;;5010972;28;20026;-81
2023/11/03 04:41:18;;;;;;;7.80;1.17;;;;;;;;;;5009993;28;20030;-79
2023/11/03 04:43:46;;;;;;;10.13;1.03;;;;;;;;;;5008307;28;20038;-80
2023/11/03 04:46:12;;;;;;;3.70;0.80;;;;;;;;;;5005116;28;20099;-80
2023/11/03 04:48:38;;;;;;;6.93;1.60;;;;;;;;;;5011562;28;20022;-80
2023/11/03 04:51:06;;;;;;;8.43;0.87;;;;;;;;;;5010146;28;20034;-81
2023/11/03 04:53:32;;;;;;;7.83;1.47;;;;;;;;;;5008499;28;20166;-80
2023/11/03 04:55:58;;;;;;;4.93;1.20;;;;;;;;;;5009468;28;20037;-81
2023/11/03 04:58:25;;;;;;;6.03;1.63;;;;;;;;;;5010409;28;20038;-81
2023/11/03 05:00:51;;;;;;;5.43;1.17;;;;;;;;;;5003319;28;20054;-80
2023/11/03 05:03:19;;;;;;;9.87;2.10;;;;;;;;;;5007881;28;20022;-81
2023/11/03 05:05:45;;;;;;;7.50;1.73;;;;;;;;;;5009915;28;20097;-80
2023/11/03 05:08:11;;;;;;;9.77;2.07;;;;;;;;;;5010671;28;20042;-81
2023/11/03 05:10:38;;;;;;;6.17;1.60;;;;;;;;;;5007891;28;20053;-81
2023/11/03 05:13:07;;;;;;;8.40;1.77;;;;;;;;;;5007917;28;20113;-81
2023/11/03 05:15:33;;;;;;;6.17;1.17;;;;;;;;;;5009845;28;20058;-81
2023/11/03 05:17:59;;;;;;;4.40;1.13;;;;;;;;;;5011975;28;20486;-79
2023/11/03 05:20:25;;;;;;;6.97;1.93;;;;;;;;;;5008092;28;20042;-80
2023/11/03 05:22:51;;;;;;;9.30;2.17;;;;;;;;;;5017617;28;20087;-79
2023/11/03 05:25:18;;;;;;;4.70;1.63;;;;;;;;;;5012526;28;20026;-80
2023/11/03 05:27:44;;;;;;;6.57;1.17;;;;;;;;;;5003443;28;20033;-80
2023/11/03 05:30:11;;;;;;;9.23;1.80;;;;;;;;;;5002015;28;20061;-80
2023/11/03 05:32:37;;;;;;;5.93;1.23;;;;;;;;;;5010578;28;20037;-82
2023/11/03 05:35:03;;;;;;;6.90;1.13;;;;;;;;;;5008686;28;20041;-80
2023/11/03 05:37:30;;;;;;;6.03;1.47;;;;;;;;;;5008926;28;20030;-80
2023/11/03 05:39:56;;;;;;;4.47;2.07;;;;;;;;;;5004887;28;20034;-80
2023/11/03 05:42:22;;;;;;;7.20;1.07;;;;;;;;;;5002197;28;20061;-81
2023/11/03 05:44:50;;;;;;;7.30;1.53;;;;;;;;;;5003241;28;20519;-80
2023/11/03 05:47:18;;;;;;;13.97;1.90;;;;;;;;;;5004199;28;20022;-81
2023/11/03 05:49:45;;;;;;;13.23;2.00;;;;;;;;;;5004345;28;20177;-80
2023/11/03 05:52:11;;;;;;;8.97;1.80;;;;;;;;;;5004059;28;20010;-80
2023/11/03 05:54:37;;;;;;;8.50;1.80;;;;;;;;;;5006328;28;20023;-80
2023/11/03 05:57:03;;;;;;;4.50;1.23;;;;;;;;;;5011853;28;20026;-81
2023/11/03 05:59:30;;;;;;;8.97;1.70;;;;;;;;;;5003891;28;20390;-81
2023/11/03 06:01:56;;;;;;;13.43;1.77;;;;;;;;;;5011470;28;20041;-82
2023/11/03 06:04:22;;;;;;;9.53;1.97;;;;;;;;;;5007837;28;20127;-80
2023/11/03 06:06:48;;;;;;;8.77;2.10;;;;;;;;;;5007655;28;20030;-82
2023/11/03 06:09:15;;;;;;;7.90;1.53;;;;;;;;;;5008057;28;20037;-81
2023/11/03 06:11:41;;;;;;;11.53;2.30;;;;;;;;;;5009687;28;20109;-81
2023/11/03 06:14:07;;;;;;;8.10;2.23;;;;;;;;;;5013222;28;20044;-79
2023/11/03 06:16:37;;;;;;;11.20;1.97;;;;;;;;;;5000877;28;20022;-81
2023/11/03 06:19:04;;;;;;;8.53;1.90;;;;;;;;;;5006094;28;20027;-80
2023/11/03 06:21:30;;;;;;;9.07;1.80;;;;;;;;;;4997866;28;20030;-80
2023/11/03 06:23:56;;;;;;;13.50;2.20;;;;;;;;;;5003567;28;20186;-78
2023/11/03 06:26:22;;;;;;;9.40;2.20;;;;;;;;;;5006259;28;20034;-80
2023/11/03 06:28:52;;;;;;;13.10;2.53;;;;;;;;;;5007153;28;20041;-79
2023/11/03 06:31:18;;;;;;;9.60;1.83;;;;;;;;;;4996895;28;20041;-80
2023/11/03 06:33:45;;;;;;;9.27;1.80;;;;;;;;;;5004636;28;20030;-80
2023/11/03 06:36:11;;;;;;;9.43;1.73;;;;;;;;;;5007881;28;20561;-80
2023/11/03 06:38:37;;;;;;;11.50;1.83;;;;;;;;;;5004796;28;20041;-80
2023/11/03 06:41:03;;;;;;;11.13;1.90;;;;;;;;;;4995031;28;20030;-80
2023/11/03 06:43:30;;;;;;;6.50;1.43;;;;;;;;;;5005949;28;20027;-80
2023/11/03 06:45:56;;;;;;;7.43;1.53;;;;;;;;;;5001214;28;20117;-78
2023/11/03 06:48:22;;;;;;;9.70;2.10;;;;;;;;;;5010273;28;20228;-80
2023/11/03 06:50:48;;;;;;;17.17;2.07;;;;;;;;;;4996927;28;20034;-78
2023/11/03 06:53:14;;;;;;;11.40;2.03;;;;;;;;;;5004371;28;20994;-80
2023/11/03 06:55:43;;;;;;;10.43;1.70;;;;;;;;;;4999308;28;20034;-80
2023/11/03 06:58:09;;;;;;;13.03;1.97;;;;;;;;;;4997808;28;20042;-80
2023/11/03 07:00:35;;;;;;;9.47;1.77;;;;;;;;;;5001479;28;20713;-80
2023/11/03 07:03:01;;;;;;;5.13;1.57;;;;;;;;;;5002315;28;20022;-81
2023/11/03 07:05:28;;;;;;;6.00;1.60;;;;;;;;;;4996554;28;20045;-79
2023/11/03 07:07:54;;;;;;;11.03;2.23;;;;;;;;;;5002750;28;20038;-80
2023/11/03 07:10:20;;;;;;;12.00;2.03;;;;;;;;;;5003499;28;20033;-82
2023/11/03 07:12:47;;;;;;;12.57;2.50;;;;;;;;;;5019943;28;20030;-79
2023/11/03 07:15:16;;;;;;;6.47;1.80;;;;;;;;;;5003819;28;20176;-78
2023/11/03 07:17:42;;;;;;;10.07;2.10;;;;;;;;;;4996849;28;20041;-80
2023/11/03 07:20:08;;;;;;;8.43;1.97;;;;;;;;;;5018944;28;20035;-81
2023/11/03 07:22:34;;;;;;;12.03;2.00;;;;;;;;;;5016756;28;20030;-80
2023/11/03 07:25:00;;;;;;;13.07;1.63;;;;;;;;;;4999078;28;20100;-80
2023/11/03 07:27:26;;;;;;;13.63;2.10;;;;;;;;;;5018083;28;20030;-81
2023/11/03 07:29:53;;;;;;;8.97;1.40;;;;;;;;;;4999185;28;20065;-79
2023/11/03 07:32:19;;;;;;;9.47;1.80;;;;;;;;;;4998729;28;20460;-81
2023/11/03 07:34:45;;;;;;;7.50;1.77;;;;;;;;;;5002609;28;20030;-79
2023/11/03 07:37:12;;;;;;;8.00;1.37;;;;;;;;;;5000138;28;20045;-77
2023/11/03 07:39:40;;;;;;;8.40;1.97;;;;;;;;;;5005537;28;20030;-76
2023/11/03 07:42:06;;;;;;;6.80;2.17;;;;;;;;;;5013521;28;20054;-76
2023/11/03 07:44:32;;;;;;;12.00;1.80;;;;;;;;;;5007215;28;20041;-77
2023/11/03 07:47:02;;;;;;;9.03;1.93;;;;;;;;;;5008956;28;20046;-77
2023/11/03 07:49:31;;;;;;;6.40;1.53;;;;;;;;;;5028196;28;20015;-77
2023/11/03 07:51:57;;;;;;;8.63;1.70;;;;;;;;;;5011250;28;20053;-78
2023/11/03 07:54:26;;;;;;;9.13;1.90;;;;;;;;;;5013257;28;20040;-77
2023/11/03 07:56:56;;;;;;;12.87;2.13;;;;;;;;;;5011787;28;20026;-77
2023/11/03 07:59:28;;;;;;;10.80;1.67;;;;;;;;;;5006883;28;20026;-78
2023/11/03 08:01:56;;;;;;;7.03;1.10;;;;;;;;;;5012139;28;20085;-78
2023/11/03 08:04:25;;;;;;;5.03;1.17;;;;;;;;;;5006315;28;20050;-77
2023/11/03 08:06:54;;;;;;;5.87;1.10;;;;;;;;;;5006114;28;20044;-79
2023/11/03 08:09:20;;;;;;;11.87;1.77;;;;;;;;;;5012270;28;20049;-78
2023/11/03 08:11:46;;;;;;;6.90;1.73;;;;;;;;;;5012722;28;20038;-77
2023/11/03 08:14:13;;;;;;;10.10;1.30;;;;;;;;;;5012920;28;20022;-77
2023/11/03 08:16:45;;;;;;;4.20;1.07;;;;;;;;;;5009222;28;20049;-78
2023/11/03 08:19:14;;;;;;;4.97;1.42;;;;;;;;;;5010140;28;20038;-78
2023/11/03 08:21:43;;;;;;;4.47;1.10;;;;;;;;;;5013133;28;20018;-78
2023/11/03 08:24:12;;;;;;;4.37;0.90;;;;;;;;;;5008568;28;20029;-79
2023/11/03 08:26:38;;;;;;;9.47;1.30;;;;;;;;;;5010377;28;20042;-77
2023/11/03 08:29:08;;;;;;;7.87;1.70;;;;;;;;;;5029057;28;20015;-77
2023/11/03 08:31:34;;;;;;;7.33;1.70;;;;;;;;;;5008548;28;20038;-78
2023/11/03 08:34:11;;;;;;;5.43;1.27;;;;;;;;;;5013318;28;20077;-77
2023/11/03 08:36:37;;;;;;;3.30;0.97;;;;;;;;;;5012630;28;20010;-77
2023/11/03 08:39:06;;;;;;;5.27;0.90;;;;;;;;;;5006614;28;20035;-77
2023/11/03 08:41:45;;;;;;;6.80;1.23;;;;;;;;;;5010839;28;20089;-78
2023/11/03 08:44:14;;;;;;;6.20;1.40;;;;;;;;;;5013098;28;20014;-77
2023/11/03 08:46:43;;;;;;;6.17;1.63;;;;;;;;;;5019784;28;20033;-78
2023/11/03 08:49:09;;;;;;;8.00;1.60;;;;;;;;;;5019042;28;20023;-77
2023/11/03 08:51:35;;;;;;;8.27;1.63;;;;;;;;;;5011080;28;20053;-77
2023/11/03 08:54:10;;;;;;;11.87;2.10;;;;;;;;;;5018011;28;20082;-78
2023/11/03 08:56:36;;;;;;;6.47;1.57;;;;;;;;;;5011198;28;20026;-77
2023/11/03 08:59:03;;;;;;;7.70;1.47;;;;;;;;;;5017802;28;20037;-78
2023/11/03 09:01:29;;;;;;;8.03;1.53;;;;;;;;;;5017618;28;20022;-78
2023/11/03 09:03:55;;;;;;;7.07;1.40;;;;;;;;;;5018784;28;20038;-77
2023/11/03 09:06:21;;;;;;;7.03;1.30;;;;;;;;;;5030811;28;20026;-79
2023/11/03 09:08:48;;;;;;;6.33;1.53;;;;;;;;;;5009774;28;20053;-78
2023/11/03 09:11:15;;;;;;;11.00;1.87;;;;;;;;;;5016126;28;20065;-77
2023/11/03 09:13:54;;;;;;;10.80;2.03;;;;;;;;;;5009669;28;20033;-78
2023/11/03 09:16:23;;;;;;;9.77;1.40;;;;;;;;;;5019702;28;20018;-80
2023/11/03 09:18:55;;;;;;;9.17;1.97;;;;;;;;;;5013939;28;20323;-78
2023/11/03 09:21:21;;;;;;;13.13;2.08;;;;;;;;;;5031468;28;20045;-78
2023/11/03 09:23:50;;;;;;;12.63;2.43;;;;;;;;;;5018697;28;20377;-77
2023/11/03 09:26:19;;;;;;;7.70;1.30;;;;;;;;;;5007108;28;20023;-77
2023/11/03 09:28:52;;;;;;;7.90;1.57;;;;;;;;;;5007472;28;20015;-77
2023/11/03 09:31:18;;;;;;;8.60;1.30;;;;;;;;;;5015929;28;20038;-78
2023/11/03 09:33:45;;;;;;;9.53;1.67;;;;;;;;;;5018648;28;20089;-78
2023/11/03 09:36:11;;;;;;;7.57;1.57;;;;;;;;;;5013758;28;20018;-78
2023/11/03 09:38:47;;;;;;;8.33;1.93;;;;;;;;;;5015498;28;20022;-78
2023/11/03 09:41:15;;;;;;;7.67;1.57;;;;;;;;;;5015601;28;20029;-78
2023/11/03 09:43:42;;;;;;;9.30;1.67;;;;;;;;;;5016947;28;20050;-78
2023/11/03 09:46:09;;;;;;;6.13;2.40;;;;;;;;;;5011728;28;20094;-80
2023/11/03 09:48:41;;;;;;;8.53;1.70;;;;;;;;;;5017579;28;20044;-76
2023/11/03 09:51:09;;;;;;;6.38;1.38;;;;;;;;;;5017132;28;20048;-77
2023/11/03 09:53:36;;;;;;;7.23;2.00;;;;;;;;;;5017298;28;20254;-77
2023/11/03 09:56:02;;;;;;;8.20;1.63;;;;;;;;;;5013247;28;20030;-78
2023/11/03 09:58:34;;;;;;;5.97;1.10;;;;;;;;;;5017334;28;20068;-77
2023/11/03 10:01:01;;;;;;;3.60;1.40;;;;;;;;;;5011339;28;20018;-77
2023/11/03 10:03:31;;;;;;;10.43;2.47;;;;;;;;;;5016924;28;20022;-77
2023/11/03 10:05:57;;;;;;;8.00;1.87;;;;;;;;;;5017033;28;20024;-78
2023/11/03 10:08:24;;;;;;;5.93;1.30;;;;;;;;;;5016304;28;20236;-76
2023/11/03 10:10:50;;;;;;;10.90;1.80;;;;;;;;;;5015959;28;20023;-77
2023/11/03 10:13:20;;;;;;;6.57;1.93;;;;;;;;;;5008821;28;20026;-78
2023/11/03 10:15:46;;;;;;;7.37;1.50;;;;;;;;;;5015569;28;20243;-77
2023/11/03 10:18:13;;;;;;;12.60;1.57;;;;;;;;;;5010662;28;20023;-77
2023/11/03 10:20:39;;;;;;;6.77;1.33;;;;;;;;;;5018700;28;20050;-78
2023/11/03 10:23:05;;;;;;;4.87;1.40;;;;;;;;;;5018238;28;20181;-78
2023/11/03 10:25:32;;;;;;;6.30;1.70;;;;;;;;;;5015353;28;20018;-79
2023/11/03 10:28:04;;;;;;;5.90;1.37;;;;;;;;;;5033607;28;20227;-78
2023/11/03 10:30:32;;;;;;;14.55;2.05;;;;;;;;;;5008548;28;20026;-78
2023/11/03 10:32:58;;;;;;;13.00;2.60;;;;;;;;;;5016544;28;20061;-75
2023/11/03 10:35:25;;;;;;;7.93;1.37;;;;;;;;;;5015403;28;20031;-79
2023/11/03 10:37:53;;;;;;;12.67;1.33;;;;;;;;;;5016593;28;20042;-78
2023/11/03 10:40:20;;;;;;;6.73;1.10;;;;;;;;;;5008995;28;20043;-78
2023/11/03 10:42:49;;;;;;;7.97;1.80;;;;;;;;;;5017916;28;20038;-80
2023/11/03 10:45:17;;;;;;;6.27;2.13;;;;;;;;;;5012785;28;20027;-82
2023/11/03 10:47:43;;;;;;;8.27;1.33;;;;;;;;;;5020150;28;20023;-80
2023/11/03 10:50:09;;;;;;;9.23;1.40;;;;;;;;;;5018361;28;20073;-78
2023/11/03 10:52:54;;;;;;;13.40;2.17;;;;;;;;;;5016383;28;20038;-82
2023/11/03 10:55:25;;;;;;;10.90;1.60;;;;;;;;;;5018530;28;20030;-81
2023/11/03 10:57:56;;;;;;;5.93;1.00;;;;;;;;;;5015236;28;20022;-82
2023/11/03 11:00:22;;;;;;;8.30;1.47;;;;;;;;;;5019893;28;20018;-79
2023/11/03 11:03:20;;;;;;;11.07;1.50;;;;;;;;;;5018737;28;20086;-76
2023/11/03 11:05:59;;;;;;;10.13;1.70;;;;;;;;;;4966182;28;20018;-79
2023/11/03 11:08:27;;;;;;;10.53;1.77;;;;;;;;;;5019179;28;20029;-78
2023/11/03 11:10:53;;;;;;;6.70;1.43;;;;;;;;;;5014188;28;20022;-82
2023/11/03 11:13:20;;;;;;;9.53;1.63;;;;;;;;;;5017927;28;20027;-77
2023/11/03 11:16:02;;;;;;;8.50;1.70;;;;;;;;;;5018458;28;20085;-80
2023/11/03 11:18:32;;;;;;;6.00;1.20;;;;;;;;;;5015642;28;20014;-77
2023/11/03 11:21:19;;;;;;;8.90;1.83;;;;;;;;;;5017855;28;20022;-79
2023/11/03 11:23:47;;;;;;;9.40;1.23;;;;;;;;;;5029197;28;20041;-77
2023/11/03 11:26:16;;;;;;;6.97;1.43;;;;;;;;;;5006491;28;20007;-80
2023/11/03 11:28:43;;;;;;;11.13;1.60;;;;;;;;;;5017793;28;20049;-80
2023/11/03 11:31:27;;;;;;;10.03;1.53;;;;;;;;;;5017672;28;20058;-79
2023/11/03 11:34:02;;;;;;;8.73;1.53;;;;;;;;;;5017325;28;20011;-78
2023/11/03 11:36:28;;;;;;;10.00;1.53;;;;;;;;;;5018314;28;20010;-78
2023/11/03 11:38:59;;;;;;;11.47;1.20;;;;;;;;;;5019613;28;20014;-77
2023/11/03 11:41:28;;;;;;;11.10;2.30;;;;;;;;;;5018081;28;20026;-76
2023/11/03 11:44:01;;;;;;;11.00;1.70;;;;;;;;;;5013071;28;20026;-76
2023/11/03 11:46:36;;;;;;;9.65;1.52;;;;;;;;;;5017915;28;20017;-78
2023/11/03 11:49:02;;;;;;;11.10;1.37;;;;;;;;;;5018054;28;20065;-77
2023/11/03 11:51:31;;;;;;;10.30;1.93;;;;;;;;;;5017903;28;20030;-76
2023/11/03 11:54:02;;;;;;;8.57;1.60;;;;;;;;;;5017202;28;20034;-77
2023/11/03 11:56:29;;;;;;;12.73;2.45;;;;;;;;;;5011035;28;20030;-76
2023/11/03 11:58:55;;;;;;;6.23;1.93;;;;;;;;;;5017753;28;20042;-77
2023/11/03 12:01:24;;;;;;;11.83;2.23;;;;;;;;;;5014436;28;20111;-80
2023/11/03 12:03:53;;;;;;;10.10;1.60;;;;;;;;;;5012665;28;20038;-76
2023/11/03 12:06:22;;;;;;;12.77;1.93;;;;;;;;;;5019404;28;20018;-80
2023/11/03 12:08:48;;;;;;;12.77;2.00;;;;;;;;;;5018632;28;20062;-76
2023/11/03 12:11:15;;;;;;;10.80;1.80;;;;;;;;;;5017604;28;20023;-77
2023/11/03 12:13:42;;;;;;;9.20;1.40;;;;;;;;;;5018075;28;20014;-77
2023/11/03 12:16:11;;;;;;;7.60;1.80;;;;;;;;;;5016692;28;20045;-75
2023/11/03 12:18:39;;;;;;;7.60;1.37;;;;;;;;;;5019285;28;20061;-76
2023/11/03 12:21:05;;;;;;;10.47;1.80;;;;;;;;;;5019552;28;20041;-77
2023/11/03 12:23:32;;;;;;;10.60;2.33;;;;;;;;;;5009461;28;20039;-77
2023/11/03 12:26:01;;;;;;;9.30;1.90;;;;;;;;;;5015946;28;20042;-77
2023/11/03 12:28:27;;;;;;;13.27;1.90;;;;;;;;;;5019503;28;20007;-76
2023/11/03 12:30:55;;;;;;;7.00;1.80;;;;;;;;;;5017324;28;20029;-78
2023/11/03 12:33:25;;;;;;;9.97;1.93;;;;;;;;;;5011132;28;20019;-75
2023/11/03 12:35:54;;;;;;;9.60;2.00;;;;;;;;;;5011939;28;20022;-77
2023/11/03 12:38:20;;;;;;;6.47;1.27;;;;;;;;;;5016772;28;20054;-76
2023/11/03 12:40:47;;;;;;;8.83;1.67;;;;;;;;;;5019521;28;20038;-76
2023/11/03 12:43:13;;;;;;;8.53;2.40;;;;;;;;;;5017958;28;20085;-78
2023/11/03 12:45:42;;;;;;;8.97;1.50;;;;;;;;;;5010318;28;20014;-77
2023/11/03 12:48:21;;;;;;;8.60;1.53;;;;;;;;;;5013994;28;20030;-76
2023/11/03 12:50:58;;;;;;;6.23;1.33;;;;;;;;;;5017530;28;20021;-77
2023/11/03 12:53:24;;;;;;;9.47;1.30;;;;;;;;;;5015357;28;20006;-77
2023/11/03 12:56:03;;;;;;;6.80;1.33;;;;;;;;;;5015828;28;20038;-77
2023/11/03 12:58:29;;;;;;;8.30;1.90;;;;;;;;;;5015573;28;20018;-78
2023/11/03 13:01:01;;;;;;;9.53;1.73;;;;;;;;;;5030779;28;20347;-76
2023/11/03 13:03:31;;;;;;;7.55;1.73;;;;;;;;;;5015560;28;20021;-76
2023/11/03 13:05:59;;;;;;;7.43;1.70;;;;;;;;;;5031111;28;20030;-77
2023/11/03 13:08:25;;;;;;;9.53;1.47;;;;;;;;;;5031221;28;20154;-76
2023/11/03 13:10:53;;;;;;;9.90;1.77;;;;;;;;;;5013071;28;20026;-76
2023/11/03 13:13:19;;;;;;;6.20;1.20;;;;;;;;;;5015697;28;20018;-76
2023/11/03 13:15:48;;;;;;;8.70;1.47;;;;;;;;;;5012702;28;20027;-75
2023/11/03 13:18:15;;;;;;;4.27;0.73;;;;;;;;;;5027427;28;20031;-76
2023/11/03 13:20:45;;;;;;;7.87;1.93;;;;;;;;;;5012254;28;20026;-76
2023/11/03 13:23:19;;;;;;;11.73;1.97;;;;;;;;;;5009865;28;21132;-78
2023/11/03 13:25:45;;;;;;;4.90;1.10;;;;;;;;;;5013415;28;20038;-76
2023/11/03 13:28:14;;;;;;;6.73;2.37;;;;;;;;;;5030838;28;20055;-76
2023/11/03 13:30:42;;;;;;;10.43;1.20;;;;;;;;;;5015898;28;20018;-78
2023/11/03 13:33:10;;;;;;;6.17;1.00;;;;;;;;;;5014636;28;20046;-77
2023/11/03 13:35:39;;;;;;;13.03;1.53;;;;;;;;;;5008716;28;20034;-76
2023/11/03 13:38:07;;;;;;;6.07;1.50;;;;;;;;;;5013226;28;20027;-77
2023/11/03 13:40:34;;;;;;;10.37;2.13;;;;;;;;;;5012629;28;20286;-77
2023/11/03 13:43:04;;;;;;;3.83;1.10;;;;;;;;;;5007633;28;20049;-76
2023/11/03 13:45:32;;;;;;;9.43;2.10;;;;;;;;;;5024898;28;20086;-76
2023/11/03 13:48:07;;;;;;;9.00;1.20;;;;;;;;;;5013137;28;20026;-78
2023/11/03 13:50:36;;;;;;;8.30;1.77;;;;;;;;;;5013983;28;20018;-76
2023/11/03 13:53:03;;;;;;;13.67;2.63;;;;;;;;;;5026310;28;20026;-77
2023/11/03 13:55:29;;;;;;;8.10;1.37;;;;;;;;;;5005262;28;20010;-76
2023/11/03 13:57:58;;;;;;;4.00;1.13;;;;;;;;;;5013223;28;20030;-77
2023/11/03 14:00:25;;;;;;;5.00;1.47;;;;;;;;;;5029073;28;20073;-77
2023/11/03 14:02:53;;;;;;;13.23;1.33;;;;;;;;;;5014510;28;20027;-76
2023/11/03 14:05:22;;;;;;;9.47;1.60;;;;;;;;;;5013782;28;20026;-77
2023/11/03 14:07:50;;;;;;;9.17;1.20;;;;;;;;;;5007173;28;20031;-76
2023/11/03 14:10:18;;;;;;;12.47;2.23;;;;;;;;;;5013217;28;20089;-77
2023/11/03 14:12:47;;;;;;;5.33;1.33;;;;;;;;;;5013498;28;20038;-77
2023/11/03 14:15:16;;;;;;;6.47;1.50;;;;;;;;;;5006882;28;20028;-77
2023/11/03 14:17:44;;;;;;;6.27;1.13;;;;;;;;;;5011021;28;20096;-77
2023/11/03 14:20:11;;;;;;;4.83;1.10;;;;;;;;;;5007696;28;20019;-77
2023/11/03 14:22:41;;;;;;;4.80;1.23;;;;;;;;;;5006631;28;20025;-77
2023/11/03 14:25:07;;;;;;;6.57;1.40;;;;;;;;;;5012816;28;20018;-77
2023/11/03 14:27:34;;;;;;;6.93;1.60;;;;;;;;;;5013394;28;20471;-76
2023/11/03 14:30:00;;;;;;;9.77;1.83;;;;;;;;;;5029055;28;20054;-77
2023/11/03 14:32:27;;;;;;;7.77;1.10;;;;;;;;;;5026419;28;20054;-77
2023/11/03 14:34:53;;;;;;;7.50;1.93;;;;;;;;;;5009278;28;20018;-77
2023/11/03 14:37:21;;;;;;;4.90;1.40;;;;;;;;;;5024298;28;20041;-76
2023/11/03 14:39:47;;;;;;;6.83;1.40;;;;;;;;;;5007314;28;20022;-77
2023/11/03 14:42:16;;;;;;;6.57;1.80;;;;;;;;;;5009000;28;20019;-76
2023/11/03 14:44:42;;;;;;;6.97;1.53;;;;;;;;;;5014671;28;20099;-76
2023/11/03 14:47:08;;;;;;;5.90;1.43;;;;;;;;;;5016292;28;20057;-77
2023/11/03 14:49:38;;;;;;;8.00;1.40;;;;;;;;;;5054061;23;20033;-77
2023/11/03 14:52:09;;;;;;;5.30;1.40;;;;;;;;;;5055667;28;20062;-77